Terminal Aerodrome Forecast
Issued by NWS

Home | Current Version | Previous Version | Text Only | Print | Product List | Glossary On
Versions: 1 2 3 4 5 6 7 8 9 10 11 12 13 14 15 16 17 18 19 20
000
FTUS45 KBYZ 181726
TAFLVM
TAF
KLVM 181726Z 1818/1918 24028G38KT P6SM FEW110 SCT250
     FM190200 24035G46KT P6SM FEW110 SCT250
     FM190700 24035G50KT P6SM FEW110 SCT250=

USA.gov is the U.S. government's official web portal to all federal, state and local government web resources and services.